Portada
METAR-TAF:

METAR-TAF

Aeropuertos :

Apalachicola, Florida, Estados Unidos

latitud: 29-43-37N, longitud: 085-01-29W, altitud: 6 m

Observación

El informe se hizo hace 27 minutos, a las 02:53 UTC
Viento 9 kt del oeste
Temperatura 27°C
Humedad 84%
Presión 1016 hPa
Visibilidad: 16.1 km
Escasas nubes a una altura de 8000 ft

METAR: KAAF 080253Z AUTO 26009KT 10SM FEW080 27/24 A3000 RMK AO2 SLP158 T02670244 51005 TSNO

Hora: 23:20 (03:20 UTC)


TAF: falta

Observaciones y pronósticos meteorológicos de más de 4000 aeropuertos (mensajes METAR y TAF).

Los puntos amarillos y rojos representan las estaciones disponibles.

Ponga el ratón en el punto deseado para ver el nombre de la estación.

Haga clic para ver las observaciones y los pronósticos meteorológicos.

Para cambiar el mapa : haga clic en los botones verdes con una cruz de color negro para hacer un zoom, en el botón verde con un guión para alejar o en las flechas verdes para mapas adyacentes.


METAR-TAF: